Terminal Aerodrome Forecast
Issued by NWS

Home | Current Version | Previous Version | Text Only | Print | Product List | Glossary On
Versions: 1 2 3 4 5 6 7 8 9 10 11 12 13 14
000
FTUS42 KMLB 212340
TAFLEE
TAF
KLEE 212340Z 2200/2224 06006KT P6SM FEW025 BKN250
     FM221400 11007KT P6SM SCT030 BKN250
     FM221800 11008KT P6SM VCSH SCT040 SCT060 BKN250=

USA.gov is the U.S. government's official web portal to all federal, state and local government web resources and services.